createdAt,value
2016-12-05T00:00:19.332Z,0
2016-12-05T00:01:19.313Z,0
2016-12-05T00:02:19.003Z,0
2016-12-05T00:03:18.986Z,0
2016-12-05T00:04:19.273Z,0
2016-12-05T00:05:18.957Z,0
2016-12-05T00:06:18.937Z,0
2016-12-05T00:07:18.926Z,0
2016-12-05T00:08:18.912Z,0
2016-12-05T00:09:18.895Z,0
2016-12-05T00:10:18.877Z,0
2016-12-05T00:11:18.871Z,0
2016-12-05T00:12:18.851Z,0
2016-12-05T00:13:18.832Z,0
2016-12-05T00:14:18.826Z,0
2016-12-05T00:15:18.814Z,0
2016-12-05T00:16:18.789Z,0
2016-12-05T00:17:18.773Z,0
2016-12-05T00:18:18.765Z,0
2016-12-05T00:19:18.748Z,0
2016-12-05T00:20:18.730Z,0
2016-12-05T00:21:18.721Z,0
2016-12-05T00:22:18.705Z,0
2016-12-05T00:23:18.684Z,0
2016-12-05T00:24:18.675Z,0
2016-12-05T00:25:18.657Z,0
2016-12-05T00:26:18.645Z,0
2016-12-05T00:27:18.627Z,0
2016-12-05T00:28:18.621Z,0
2016-12-05T00:29:18.599Z,0
2016-12-05T00:30:18.589Z,0
2016-12-05T00:31:18.592Z,0
2016-12-05T00:32:18.584Z,0
2016-12-05T00:33:18.540Z,0
2016-12-05T00:34:18.526Z,0
2016-12-05T00:35:18.517Z,0
2016-12-05T00:36:18.498Z,0
2016-12-05T00:37:18.487Z,0
2016-12-05T00:38:18.472Z,0
2016-12-05T00:39:18.783Z,0
2016-12-05T00:40:18.437Z,0
2016-12-05T00:41:18.420Z,0
2016-12-05T00:42:18.408Z,0
2016-12-05T00:43:18.396Z,0
2016-12-05T00:44:18.379Z,0
2016-12-05T00:45:18.366Z,0
2016-12-05T00:46:18.344Z,0
2016-12-05T00:47:18.330Z,0
2016-12-05T00:48:18.319Z,0
2016-12-05T00:49:18.303Z,0
2016-12-05T00:50:18.292Z,0
2016-12-05T00:51:18.276Z,0
2016-12-05T00:52:18.256Z,0
2016-12-05T00:53:18.243Z,0
2016-12-05T00:54:18.229Z,0
2016-12-05T00:55:18.220Z,0
2016-12-05T00:56:18.506Z,0
2016-12-05T00:57:18.176Z,0
2016-12-05T00:58:18.178Z,0
2016-12-05T00:59:18.158Z,0
2016-12-05T01:00:18.136Z,0
2016-12-05T01:01:18.124Z,0
2016-12-05T01:02:18.418Z,0
2016-12-05T01:03:18.094Z,0
2016-12-05T01:04:18.087Z,0
2016-12-05T01:05:18.068Z,0
2016-12-05T01:06:18.052Z,0
2016-12-05T01:07:18.037Z,0
2016-12-05T01:08:18.029Z,0
2016-12-05T01:09:18.006Z,0
2016-12-05T01:10:17.990Z,0
2016-12-05T01:11:17.981Z,0
2016-12-05T01:12:17.969Z,0
2016-12-05T01:13:17.951Z,0
2016-12-05T01:14:17.940Z,0
2016-12-05T01:15:17.926Z,0
2016-12-05T01:16:17.898Z,0
2016-12-05T01:17:17.888Z,0
2016-12-05T01:18:17.879Z,0
2016-12-05T01:19:17.863Z,0
2016-12-05T01:20:17.848Z,0
2016-12-05T01:21:17.832Z,0
2016-12-05T01:22:17.817Z,0
2016-12-05T01:23:17.799Z,0
2016-12-05T01:24:17.783Z,0
2016-12-05T01:25:17.775Z,0
2016-12-05T01:26:17.753Z,0
2016-12-05T01:27:17.742Z,0
2016-12-05T01:28:17.728Z,0
2016-12-05T01:29:17.709Z,0
2016-12-05T01:30:17.699Z,0
2016-12-05T01:31:17.684Z,0
2016-12-05T01:32:17.672Z,0
2016-12-05T01:33:17.653Z,0
2016-12-05T01:34:17.647Z,0
2016-12-05T01:35:17.617Z,0
2016-12-05T01:36:17.610Z,0
2016-12-05T01:37:17.591Z,0
2016-12-05T01:38:17.580Z,0
2016-12-05T01:39:17.565Z,0
2016-12-05T01:40:17.550Z,0
2016-12-05T01:41:17.527Z,0
2016-12-05T01:42:17.519Z,0
2016-12-05T01:43:17.504Z,0
2016-12-05T01:44:17.487Z,0
2016-12-05T01:45:17.473Z,0
2016-12-05T01:46:17.461Z,0
2016-12-05T01:47:17.443Z,0
2016-12-05T01:48:17.426Z,0
2016-12-05T01:49:17.716Z,0
2016-12-05T01:50:17.710Z,0
2016-12-05T01:51:17.387Z,0
2016-12-05T01:52:17.375Z,0
2016-12-05T01:53:17.679Z,0
2016-12-05T01:54:17.348Z,0
2016-12-05T01:55:17.328Z,0
2016-12-05T01:56:17.308Z,0
2016-12-05T01:57:17.298Z,0
2016-12-05T01:58:17.279Z,0
2016-12-05T01:59:17.271Z,0
2016-12-05T02:00:17.255Z,0
2016-12-05T02:01:17.240Z,0
2016-12-05T02:02:17.220Z,0
2016-12-05T02:03:17.201Z,0
2016-12-05T02:04:17.498Z,0
2016-12-05T02:05:17.176Z,0
2016-12-05T02:06:17.162Z,0
2016-12-05T02:07:17.144Z,0
2016-12-05T02:08:17.137Z,0
2016-12-05T02:09:17.440Z,0
2016-12-05T02:10:17.097Z,0
2016-12-05T02:11:17.093Z,0
2016-12-05T02:12:17.073Z,0
2016-12-05T02:13:17.056Z,0
2016-12-05T02:14:17.056Z,0
2016-12-05T02:15:17.037Z,0
2016-12-05T02:16:17.025Z,0
2016-12-05T02:17:17.000Z,0
2016-12-05T02:18:16.988Z,0
2016-12-05T02:19:16.969Z,0
2016-12-05T02:20:16.954Z,0
2016-12-05T02:21:17.243Z,0
2016-12-05T02:22:16.919Z,0
2016-12-05T02:23:16.904Z,0
2016-12-05T02:24:16.900Z,0
2016-12-05T02:25:16.881Z,0
2016-12-05T02:26:16.864Z,0
2016-12-05T02:27:16.849Z,0
2016-12-05T02:28:16.831Z,0
2016-12-05T02:29:16.817Z,0
2016-12-05T02:30:16.804Z,0
2016-12-05T02:31:16.784Z,0
2016-12-05T02:32:16.780Z,0
2016-12-05T02:33:16.758Z,0
2016-12-05T02:34:16.747Z,0
2016-12-05T02:35:16.729Z,0
2016-12-05T02:36:16.708Z,0
2016-12-05T02:37:16.703Z,0
2016-12-05T02:38:16.675Z,0
2016-12-05T02:39:16.665Z,0
2016-12-05T02:40:16.649Z,0
2016-12-05T02:41:16.643Z,0
2016-12-05T02:42:16.624Z,0
2016-12-05T02:43:16.607Z,0
2016-12-05T02:44:16.589Z,0
2016-12-05T02:45:16.577Z,0
2016-12-05T02:46:16.566Z,0
2016-12-05T02:47:16.543Z,0
2016-12-05T02:48:16.530Z,0
2016-12-05T02:49:16.513Z,0
2016-12-05T02:50:16.508Z,0
2016-12-05T02:51:16.479Z,0
2016-12-05T02:52:16.468Z,0
2016-12-05T02:53:16.456Z,0
2016-12-05T02:54:16.440Z,0
2016-12-05T02:55:16.429Z,0
2016-12-05T02:56:16.405Z,0
2016-12-05T02:57:16.390Z,0
2016-12-05T02:58:16.373Z,0
2016-12-05T02:59:16.356Z,4
2016-12-05T03:00:16.347Z,4
2016-12-05T03:01:16.345Z,4
2016-12-05T03:02:16.321Z,4
2016-12-05T03:03:16.600Z,4
2016-12-05T03:04:16.286Z,4
2016-12-05T03:05:16.273Z,0
2016-12-05T03:06:16.256Z,0
2016-12-05T03:07:16.242Z,0
2016-12-05T03:08:16.228Z,0
2016-12-05T03:09:16.226Z,0
2016-12-05T03:10:16.191Z,0
2016-12-05T03:11:16.182Z,0
2016-12-05T03:12:16.162Z,0
2016-12-05T03:13:16.154Z,0
2016-12-05T03:14:16.143Z,0
2016-12-05T03:15:16.121Z,0
2016-12-05T03:16:16.113Z,0
2016-12-05T03:17:16.093Z,0
2016-12-05T03:18:16.076Z,0
2016-12-05T03:19:16.056Z,0
2016-12-05T03:20:16.041Z,0
2016-12-05T03:21:16.026Z,0
2016-12-05T03:22:16.012Z,0
2016-12-05T03:23:15.997Z,0
2016-12-05T03:24:15.989Z,0
2016-12-05T03:25:15.971Z,0
2016-12-05T03:26:15.946Z,0
2016-12-05T03:27:15.945Z,0
2016-12-05T03:28:15.922Z,0
2016-12-05T03:29:15.899Z,0
2016-12-05T03:30:15.895Z,0
2016-12-05T03:31:15.878Z,0
2016-12-05T03:32:15.857Z,0
2016-12-05T03:33:15.856Z,0
2016-12-05T03:34:15.835Z,0
2016-12-05T03:35:15.815Z,0
2016-12-05T03:36:15.799Z,0
2016-12-05T03:37:15.783Z,0
2016-12-05T03:38:15.779Z,0
2016-12-05T03:39:15.758Z,0
2016-12-05T03:40:15.736Z,0
2016-12-05T03:41:15.721Z,0
2016-12-05T03:42:15.707Z,0
2016-12-05T03:43:15.689Z,0
2016-12-05T03:44:15.677Z,0
2016-12-05T03:45:15.654Z,0
2016-12-05T03:46:15.643Z,0
2016-12-05T03:47:15.637Z,0
2016-12-05T03:48:15.612Z,0
2016-12-05T03:49:15.605Z,0
2016-12-05T03:50:15.585Z,0
2016-12-05T03:51:15.570Z,0
2016-12-05T03:52:15.562Z,0
2016-12-05T03:53:15.536Z,0
2016-12-05T03:54:15.525Z,0
2016-12-05T03:55:15.505Z,0
2016-12-05T03:56:15.495Z,0
2016-12-05T03:57:15.484Z,0
2016-12-05T03:58:15.463Z,0
2016-12-05T03:59:15.454Z,0
2016-12-05T04:00:15.431Z,0
2016-12-05T04:01:15.421Z,0
2016-12-05T04:02:15.400Z,0
2016-12-05T04:03:15.383Z,0
2016-12-05T04:04:15.367Z,0
2016-12-05T04:05:15.356Z,0
2016-12-05T04:06:15.342Z,0
2016-12-05T04:07:15.325Z,0
2016-12-05T04:08:15.307Z,0
2016-12-05T04:09:15.292Z,0
2016-12-05T04:10:15.278Z,0
2016-12-05T04:11:15.260Z,0
2016-12-05T04:12:15.250Z,0
2016-12-05T04:13:15.225Z,0
2016-12-05T04:14:15.212Z,0
2016-12-05T04:15:15.203Z,0
2016-12-05T04:16:15.181Z,0
2016-12-05T04:17:15.175Z,0
2016-12-05T04:18:15.154Z,0
2016-12-05T04:19:15.173Z,0
2016-12-05T04:20:15.122Z,0
2016-12-05T04:21:15.104Z,0
2016-12-05T04:22:15.086Z,0
2016-12-05T04:23:15.079Z,0
2016-12-05T04:24:15.058Z,0
2016-12-05T04:25:15.049Z,0
2016-12-05T04:26:15.029Z,0
2016-12-05T04:27:15.016Z,0
2016-12-05T04:28:15.003Z,0
2016-12-05T04:29:14.983Z,0
2016-12-05T04:30:14.965Z,0
2016-12-05T04:31:14.956Z,0
2016-12-05T04:32:14.944Z,0
2016-12-05T04:33:14.926Z,0
2016-12-05T04:34:14.911Z,0
2016-12-05T04:35:14.891Z,0
2016-12-05T04:36:14.877Z,0
2016-12-05T04:37:14.864Z,0
2016-12-05T04:38:14.848Z,0
2016-12-05T04:39:14.831Z,0
2016-12-05T04:40:14.812Z,0
2016-12-05T04:41:14.794Z,0
2016-12-05T04:42:14.788Z,0
2016-12-05T04:43:14.762Z,0
2016-12-05T04:44:14.754Z,0
2016-12-05T04:45:14.740Z,0
2016-12-05T04:46:14.721Z,0
2016-12-05T04:47:14.708Z,0
2016-12-05T04:48:14.996Z,0
2016-12-05T04:49:14.673Z,0
2016-12-05T04:50:14.655Z,0
2016-12-05T04:51:14.643Z,0
2016-12-05T04:52:14.649Z,0
2016-12-05T04:53:14.623Z,0
2016-12-05T04:54:14.601Z,0
2016-12-05T04:55:14.584Z,0
2016-12-05T04:56:14.574Z,0
2016-12-05T04:57:14.552Z,0
2016-12-05T04:58:14.533Z,0
2016-12-05T04:59:14.518Z,0
2016-12-05T05:00:14.509Z,0
2016-12-05T05:01:14.494Z,0
2016-12-05T05:02:14.473Z,0
2016-12-05T05:03:14.768Z,0
2016-12-05T05:04:14.450Z,0
2016-12-05T05:05:14.430Z,0
2016-12-05T05:06:14.447Z,0
2016-12-05T05:07:14.397Z,0
2016-12-05T05:08:14.379Z,0
2016-12-05T05:09:14.372Z,0
2016-12-05T05:10:14.353Z,0
2016-12-05T05:11:14.337Z,0
2016-12-05T05:12:14.324Z,0
2016-12-05T05:13:14.306Z,0
2016-12-05T05:14:14.294Z,0
2016-12-05T05:15:14.284Z,0
2016-12-05T05:16:14.267Z,0
2016-12-05T05:17:14.247Z,0
2016-12-05T05:18:14.236Z,0
2016-12-05T05:19:14.221Z,0
2016-12-05T05:20:14.501Z,0
2016-12-05T05:21:14.187Z,0
2016-12-05T05:22:14.173Z,0
2016-12-05T05:23:14.156Z,0
2016-12-05T05:24:14.140Z,0
2016-12-05T05:25:14.134Z,0
2016-12-05T05:26:14.112Z,0
2016-12-05T05:27:14.095Z,0
2016-12-05T05:28:14.077Z,0
2016-12-05T05:29:14.063Z,0
2016-12-05T05:30:14.045Z,0
2016-12-05T05:31:14.032Z,0
2016-12-05T05:32:14.014Z,0
2016-12-05T05:33:14.001Z,0
2016-12-05T05:34:13.983Z,0
2016-12-05T05:35:13.996Z,0
2016-12-05T05:36:13.957Z,0
2016-12-05T05:37:13.935Z,0
2016-12-05T05:38:13.928Z,0
2016-12-05T05:39:13.909Z,0
2016-12-05T05:40:14.198Z,0
2016-12-05T05:41:13.880Z,0
2016-12-05T05:42:13.867Z,0
2016-12-05T05:43:13.864Z,0
2016-12-05T05:44:13.866Z,0
2016-12-05T05:45:13.828Z,0
2016-12-05T05:46:13.809Z,0
2016-12-05T05:47:14.086Z,0
2016-12-05T05:48:13.777Z,0
2016-12-05T05:49:13.754Z,0
2016-12-05T05:50:13.743Z,0
2016-12-05T05:51:13.720Z,0
2016-12-05T05:52:13.714Z,0
2016-12-05T05:53:13.699Z,0
2016-12-05T05:54:13.679Z,0
2016-12-05T05:55:13.666Z,0
2016-12-05T05:56:13.674Z,0
2016-12-05T05:57:13.643Z,0
2016-12-05T05:58:13.615Z,0
2016-12-05T05:59:13.599Z,0
2016-12-05T06:00:13.588Z,0
2016-12-05T06:01:13.568Z,0
2016-12-05T06:02:13.553Z,0
2016-12-05T06:03:13.547Z,0
2016-12-05T06:04:13.528Z,0
2016-12-05T06:05:13.509Z,0
2016-12-05T06:06:13.495Z,0
2016-12-05T06:07:13.476Z,0
2016-12-05T06:08:13.461Z,0
2016-12-05T06:09:13.449Z,0
2016-12-05T06:10:13.440Z,0
2016-12-05T06:11:13.424Z,0
2016-12-05T06:12:13.405Z,0
2016-12-05T06:13:13.425Z,0
2016-12-05T06:14:13.368Z,0
2016-12-05T06:15:13.359Z,0
2016-12-05T06:16:13.337Z,0
2016-12-05T06:17:13.333Z,0
2016-12-05T06:18:13.603Z,0
2016-12-05T06:19:13.290Z,0
2016-12-05T06:20:13.283Z,4
2016-12-05T06:21:13.262Z,4
2016-12-05T06:22:13.256Z,0
2016-12-05T06:23:13.237Z,4
2016-12-05T06:24:13.218Z,4
2016-12-05T06:25:13.200Z,4
2016-12-05T06:26:13.180Z,4
2016-12-05T06:27:13.181Z,4
2016-12-05T06:28:13.159Z,4
2016-12-05T06:29:13.134Z,8
2016-12-05T06:30:13.127Z,4
2016-12-05T06:31:13.110Z,8
2016-12-05T06:32:13.089Z,8
2016-12-05T06:33:13.073Z,8
2016-12-05T06:34:13.064Z,12
2016-12-05T06:35:13.039Z,12
2016-12-05T06:36:13.036Z,16
2016-12-05T06:37:13.012Z,20
2016-12-05T06:38:12.992Z,24
2016-12-05T06:39:12.990Z,24
2016-12-05T06:40:12.969Z,28
2016-12-05T06:41:12.951Z,32
2016-12-05T06:42:12.938Z,36
2016-12-05T06:43:12.925Z,40
2016-12-05T06:44:12.907Z,48
2016-12-05T06:45:12.890Z,52
2016-12-05T06:46:12.872Z,60
2016-12-05T06:47:12.857Z,68
2016-12-05T06:48:12.839Z,76
2016-12-05T06:49:12.824Z,84
2016-12-05T06:50:12.811Z,100
2016-12-05T06:51:12.830Z,112
2016-12-05T06:52:12.772Z,120
2016-12-05T06:53:12.766Z,132
2016-12-05T06:54:12.749Z,144
2016-12-05T06:55:12.742Z,152
2016-12-05T06:56:12.738Z,164
2016-12-05T06:57:12.697Z,184
2016-12-05T06:58:12.683Z,200
2016-12-05T06:59:12.663Z,220
2016-12-05T07:00:12.655Z,244
2016-12-05T07:01:12.642Z,256
2016-12-05T07:02:12.625Z,284
2016-12-05T07:03:12.612Z,308
2016-12-05T07:04:12.593Z,324
2016-12-05T07:05:12.576Z,352
2016-12-05T07:06:12.557Z,388
2016-12-05T07:07:12.547Z,412
2016-12-05T07:08:12.530Z,444
2016-12-05T07:09:12.517Z,452
2016-12-05T07:10:12.501Z,488
2016-12-05T07:11:12.481Z,516
2016-12-05T07:12:12.462Z,540
2016-12-05T07:13:12.481Z,576
2016-12-05T07:14:12.433Z,632
2016-12-05T07:15:12.423Z,660
2016-12-05T07:16:12.404Z,700
2016-12-05T07:17:12.391Z,748
2016-12-05T07:18:12.373Z,760
2016-12-05T07:19:12.359Z,788
2016-12-05T07:20:12.343Z,812
2016-12-05T07:21:12.327Z,832
2016-12-05T07:22:12.315Z,840
2016-12-05T07:23:12.299Z,884
2016-12-05T07:24:12.269Z,908
2016-12-05T07:25:12.555Z,940
2016-12-05T07:26:12.250Z,952
2016-12-05T07:27:12.223Z,1008
2016-12-05T07:28:12.217Z,1056
2016-12-05T07:29:12.192Z,1116
2016-12-05T07:30:12.185Z,1228
2016-12-05T07:31:12.172Z,1280
2016-12-05T07:32:12.148Z,1280
2016-12-05T07:33:12.137Z,1288
2016-12-05T07:34:12.737Z,1376
2016-12-05T07:35:12.102Z,1432
2016-12-05T07:36:12.088Z,1472
2016-12-05T07:37:12.071Z,1532
2016-12-05T07:38:12.051Z,1652
2016-12-05T07:39:12.035Z,1644
2016-12-05T07:40:12.026Z,1788
2016-12-05T07:41:12.020Z,1856
2016-12-05T07:42:11.996Z,1916
2016-12-05T07:43:11.977Z,2160
2016-12-05T07:44:11.953Z,2192
2016-12-05T07:45:11.951Z,2152
2016-12-05T07:46:11.921Z,2204
2016-12-05T07:47:11.911Z,2428
2016-12-05T07:48:12.223Z,2572
2016-12-05T07:49:11.876Z,2604
2016-12-05T07:50:11.872Z,2548
2016-12-05T07:51:11.849Z,2516
2016-12-05T07:52:11.837Z,2384
2016-12-05T07:53:11.819Z,2500
2016-12-05T07:54:11.800Z,2440
2016-12-05T07:55:11.785Z,2544
2016-12-05T07:56:11.775Z,2612
2016-12-05T07:57:11.758Z,2704
2016-12-05T07:58:11.739Z,2848
2016-12-05T07:59:11.726Z,2756
2016-12-05T08:00:11.714Z,2532
2016-12-05T08:01:11.996Z,2476
2016-12-05T08:02:11.678Z,2576
2016-12-05T08:03:11.654Z,2636
2016-12-05T08:04:11.650Z,2780
2016-12-05T08:05:11.629Z,2764
2016-12-05T08:06:11.615Z,2836
2016-12-05T08:07:11.601Z,2820
2016-12-05T08:08:11.616Z,2792
2016-12-05T08:09:11.566Z,3056
2016-12-05T08:10:11.552Z,3260
2016-12-05T08:11:11.541Z,3392
2016-12-05T08:12:11.522Z,3404
2016-12-05T08:13:11.503Z,3332
2016-12-05T08:14:11.495Z,3224
2016-12-05T08:15:11.472Z,3308
2016-12-05T08:16:11.458Z,3620
2016-12-05T08:17:11.446Z,3680
2016-12-05T08:18:11.430Z,3692
2016-12-05T08:19:11.707Z,3804
2016-12-05T08:20:11.392Z,3572
2016-12-05T08:21:11.372Z,3600
2016-12-05T08:22:11.360Z,3500
2016-12-05T08:23:11.649Z,3612
2016-12-05T08:24:11.333Z,3604
2016-12-05T08:25:11.312Z,3760
2016-12-05T08:26:11.297Z,3608
2016-12-05T08:27:11.289Z,3968
2016-12-05T08:28:11.270Z,3948
2016-12-05T08:29:11.254Z,3988
2016-12-05T08:30:11.240Z,4212
2016-12-05T08:31:11.224Z,4260
2016-12-05T08:32:11.203Z,4392
2016-12-05T08:33:11.192Z,4416
2016-12-05T08:34:11.178Z,4140
2016-12-05T08:35:11.163Z,4876
2016-12-05T08:36:11.150Z,4996
2016-12-05T08:37:11.129Z,4088
2016-12-05T08:38:11.412Z,4816
2016-12-05T08:39:11.104Z,5024
2016-12-05T08:40:11.097Z,4664
2016-12-05T08:41:11.066Z,4408
2016-12-05T08:42:11.055Z,4668
2016-12-05T08:43:11.046Z,4544
2016-12-05T08:44:11.023Z,4180
2016-12-05T08:45:11.010Z,4172
2016-12-05T08:46:10.992Z,4144
2016-12-05T08:47:10.974Z,4032
2016-12-05T08:48:10.958Z,4120
2016-12-05T08:49:10.943Z,4152
2016-12-05T08:50:10.927Z,4284
2016-12-05T08:51:10.920Z,4068
2016-12-05T08:52:10.901Z,3980
2016-12-05T08:53:10.893Z,4004
2016-12-05T08:54:11.194Z,3984
2016-12-05T08:55:10.851Z,3972
2016-12-05T08:56:10.874Z,4000
2016-12-05T08:57:10.827Z,3964
2016-12-05T08:58:10.813Z,4068
2016-12-05T08:59:10.793Z,4080
2016-12-05T09:00:10.779Z,3992
2016-12-05T09:01:10.759Z,4036
2016-12-05T09:02:11.046Z,4060
2016-12-05T09:03:10.728Z,4084
2016-12-05T09:04:10.723Z,4056
2016-12-05T09:05:10.692Z,4072
2016-12-05T09:06:10.688Z,4096
2016-12-05T09:07:10.661Z,4072
2016-12-05T09:08:10.653Z,4020
2016-12-05T09:09:10.636Z,3992
2016-12-05T09:10:10.622Z,4088
2016-12-05T09:11:10.611Z,4020
2016-12-05T09:12:10.596Z,4000
2016-12-05T09:13:10.572Z,4056
2016-12-05T09:14:10.559Z,4000
2016-12-05T09:15:10.843Z,3956
2016-12-05T09:16:10.533Z,3980
2016-12-05T09:17:10.512Z,3932
2016-12-05T09:18:10.490Z,3944
2016-12-05T09:19:10.505Z,3960
2016-12-05T09:20:10.469Z,3948
2016-12-05T09:21:10.443Z,3952
2016-12-05T09:22:10.734Z,3884
2016-12-05T09:23:10.715Z,3904
2016-12-05T09:24:10.714Z,3868
2016-12-05T09:25:10.385Z,3856
2016-12-05T09:26:10.380Z,3856
2016-12-05T09:27:10.357Z,3852
2016-12-05T09:28:10.337Z,3836
2016-12-05T09:29:10.633Z,3820
2016-12-05T09:30:10.311Z,3856
2016-12-05T09:31:10.294Z,3856
2016-12-05T09:32:10.275Z,3844
2016-12-05T09:33:10.563Z,3832
2016-12-05T09:34:10.244Z,3880
2016-12-05T09:35:10.235Z,3836
2016-12-05T09:36:10.212Z,3840
2016-12-05T09:37:10.203Z,3868
2016-12-05T09:38:10.193Z,3856
2016-12-05T09:39:10.164Z,3868
2016-12-05T09:40:10.160Z,3876
2016-12-05T09:41:10.139Z,3892
2016-12-05T09:42:10.121Z,3852
2016-12-05T09:43:10.110Z,3872
2016-12-05T09:44:10.118Z,3864
2016-12-05T09:45:10.075Z,3892
2016-12-05T09:46:10.367Z,3884
2016-12-05T09:47:10.051Z,3880
2016-12-05T09:48:10.038Z,3892
2016-12-05T09:49:10.014Z,3868
2016-12-05T09:50:10.001Z,3888
2016-12-05T09:51:10.281Z,3876
2016-12-05T09:52:09.971Z,3864
2016-12-05T09:53:10.249Z,3872
2016-12-05T09:54:10.234Z,3872
2016-12-05T09:55:09.923Z,3896
2016-12-05T09:56:09.908Z,3856
2016-12-05T09:57:09.887Z,3872
2016-12-05T09:58:09.878Z,3856
2016-12-05T09:59:09.867Z,3864
2016-12-05T10:00:09.846Z,3864
2016-12-05T10:01:09.829Z,3860
2016-12-05T10:02:09.820Z,3840
2016-12-05T10:03:09.797Z,3892
2016-12-05T10:04:09.787Z,3884
2016-12-05T10:05:09.778Z,3820
2016-12-05T10:06:10.063Z,3872
2016-12-05T10:07:09.743Z,3844
2016-12-05T10:08:09.730Z,3852
2016-12-05T10:09:10.012Z,3876
2016-12-05T10:10:09.694Z,3884
2016-12-05T10:11:09.680Z,3888
2016-12-05T10:12:09.970Z,3872
2016-12-05T10:13:09.658Z,3864
2016-12-05T10:14:09.631Z,3876
2016-12-05T10:15:09.623Z,3884
2016-12-05T10:16:09.910Z,3856
2016-12-05T10:17:09.592Z,3868
2016-12-05T10:18:09.577Z,3892
2016-12-05T10:19:09.562Z,3892
2016-12-05T10:20:09.854Z,3884
2016-12-05T10:21:09.560Z,3892
2016-12-05T10:22:09.511Z,3932
2016-12-05T10:23:09.503Z,3976
2016-12-05T10:24:09.485Z,3940
2016-12-05T10:25:09.472Z,3896
2016-12-05T10:26:09.449Z,3924
2016-12-05T10:27:09.437Z,3972
2016-12-05T10:28:09.423Z,3944
2016-12-05T10:29:09.403Z,3912
2016-12-05T10:30:09.394Z,3876
2016-12-05T10:31:09.377Z,3920
2016-12-05T10:32:09.363Z,3936
2016-12-05T10:33:09.345Z,3932
2016-12-05T10:34:09.341Z,3924
2016-12-05T10:35:09.319Z,3940
2016-12-05T10:36:09.304Z,3984
2016-12-05T10:37:09.291Z,3956
2016-12-05T10:38:09.273Z,3944
2016-12-05T10:39:09.255Z,3968
2016-12-05T10:40:09.244Z,3956
2016-12-05T10:41:09.230Z,3876
2016-12-05T10:42:09.821Z,3848
2016-12-05T10:43:09.202Z,3892
2016-12-05T10:44:09.183Z,3916
2016-12-05T10:45:09.172Z,3928
2016-12-05T10:46:09.154Z,3884
2016-12-05T10:47:09.134Z,3816
2016-12-05T10:48:09.125Z,3816
2016-12-05T10:49:09.109Z,3836
2016-12-05T10:50:09.095Z,3844
2016-12-05T10:51:09.133Z,3812
2016-12-05T10:52:09.066Z,3796
2016-12-05T10:53:09.048Z,3784
2016-12-05T10:54:09.035Z,3772
2016-12-05T10:55:09.022Z,3788
2016-12-05T10:56:09.020Z,3788
2016-12-05T10:57:08.995Z,3816
2016-12-05T10:58:08.983Z,3820
2016-12-05T10:59:08.964Z,3812
2016-12-05T11:00:08.948Z,3816
2016-12-05T11:01:08.933Z,3800
2016-12-05T11:02:08.919Z,3764
2016-12-05T11:03:08.900Z,3764
2016-12-05T11:04:08.891Z,3740
2016-12-05T11:05:08.921Z,3716
2016-12-05T11:06:08.850Z,3700
2016-12-05T11:07:08.846Z,3680
2016-12-05T11:08:08.825Z,3692
2016-12-05T11:09:08.812Z,3704
2016-12-05T11:10:08.800Z,3708
2016-12-05T11:11:09.108Z,3684
2016-12-05T11:12:08.792Z,3664
2016-12-05T11:13:08.756Z,3656
2016-12-05T11:14:08.741Z,3644
2016-12-05T11:15:08.730Z,3620
2016-12-05T11:16:08.704Z,3624
2016-12-05T11:17:08.723Z,3624
2016-12-05T11:18:08.678Z,3620
2016-12-05T11:19:08.670Z,3620
2016-12-05T11:20:08.650Z,3616
2016-12-05T11:21:08.640Z,3592
2016-12-05T11:22:08.620Z,3592
2016-12-05T11:23:08.640Z,3580
2016-12-05T11:24:08.598Z,3564
2016-12-05T11:25:08.579Z,3564
2016-12-05T11:26:08.566Z,3556
2016-12-05T11:27:08.550Z,3556
2016-12-05T11:28:08.542Z,3548
2016-12-05T11:29:08.524Z,3544
2016-12-05T11:30:08.549Z,3552
2016-12-05T11:31:08.509Z,3552
2016-12-05T11:32:08.478Z,3544
2016-12-05T11:33:08.464Z,3548
2016-12-05T11:34:08.448Z,3544
2016-12-05T11:35:08.431Z,3544
2016-12-05T11:36:08.426Z,3540
2016-12-05T11:37:08.413Z,3540
2016-12-05T11:38:08.709Z,3536
2016-12-05T11:39:08.730Z,3536
2016-12-05T11:40:08.364Z,3532
2016-12-05T11:41:08.352Z,3532
2016-12-05T11:42:08.337Z,3532
2016-12-05T11:43:08.334Z,3528
2016-12-05T11:44:08.316Z,3524
2016-12-05T11:45:08.295Z,3508
2016-12-05T11:46:08.285Z,3504
2016-12-05T11:47:08.260Z,3492
2016-12-05T11:48:08.258Z,3488
2016-12-05T11:49:08.242Z,3480
2016-12-05T11:50:08.234Z,3476
2016-12-05T11:51:08.210Z,3480
2016-12-05T11:52:08.196Z,3468
2016-12-05T11:53:08.482Z,3468
2016-12-05T11:54:08.168Z,3464
2016-12-05T11:55:08.164Z,3468
2016-12-05T11:56:08.439Z,3464
2016-12-05T11:57:08.121Z,3460
2016-12-05T11:58:08.108Z,3456
2016-12-05T11:59:08.091Z,3456
2016-12-05T12:00:08.382Z,3444
2016-12-05T12:01:08.061Z,3436
2016-12-05T12:02:08.358Z,3424
2016-12-05T12:03:08.039Z,3420
2016-12-05T12:04:08.023Z,3424
2016-12-05T12:05:08.011Z,3436
2016-12-05T12:06:07.997Z,3440
2016-12-05T12:07:07.986Z,3440
2016-12-05T12:08:07.971Z,3436
2016-12-05T12:09:07.959Z,3432
2016-12-05T12:10:07.944Z,3424
2016-12-05T12:11:07.929Z,3408
2016-12-05T12:12:07.913Z,3392
2016-12-05T12:13:07.898Z,3388
2016-12-05T12:14:08.185Z,3380
2016-12-05T12:15:07.869Z,3376
2016-12-05T12:16:07.853Z,3372
2016-12-05T12:17:07.843Z,3360
2016-12-05T12:18:07.832Z,3348
2016-12-05T12:19:07.815Z,3340
2016-12-05T12:20:07.802Z,3348
2016-12-05T12:21:07.791Z,3332
2016-12-05T12:22:07.771Z,3328
2016-12-05T12:23:07.759Z,3316
2016-12-05T12:24:07.748Z,3320
2016-12-05T12:25:07.739Z,3316
2016-12-05T12:26:07.724Z,3304
2016-12-05T12:27:07.707Z,3296
2016-12-05T12:28:07.694Z,3288
2016-12-05T12:29:07.669Z,3288
2016-12-05T12:30:07.959Z,3272
2016-12-05T12:31:07.641Z,3260
2016-12-05T12:32:07.636Z,3256
2016-12-05T12:33:07.617Z,3248
2016-12-05T12:34:07.602Z,3244
2016-12-05T12:35:07.591Z,3244
2016-12-05T12:36:07.603Z,3240
2016-12-05T12:37:07.559Z,3236
2016-12-05T12:38:07.551Z,3232
2016-12-05T12:39:07.543Z,3220
2016-12-05T12:40:07.521Z,3208
2016-12-05T12:41:07.500Z,3184
2016-12-05T12:42:07.489Z,3172
2016-12-05T12:43:07.478Z,3164
2016-12-05T12:44:07.462Z,3160
2016-12-05T12:45:07.444Z,3152
2016-12-05T12:46:07.435Z,3144
2016-12-05T12:47:07.716Z,3136
2016-12-05T12:48:07.400Z,3132
2016-12-05T12:49:07.699Z,3124
2016-12-05T12:50:07.374Z,3116
2016-12-05T12:51:07.369Z,3112
2016-12-05T12:52:07.354Z,3100
2016-12-05T12:53:07.328Z,3100
2016-12-05T12:54:07.321Z,3092
2016-12-05T12:55:07.310Z,3088
2016-12-05T12:56:07.288Z,3076
2016-12-05T12:57:07.281Z,3068
2016-12-05T12:58:07.268Z,3060
2016-12-05T12:59:07.257Z,3052
2016-12-05T13:00:07.242Z,3040
2016-12-05T13:01:07.524Z,3028
2016-12-05T13:02:07.215Z,3012
2016-12-05T13:03:07.193Z,3000
2016-12-05T13:04:07.176Z,2988
2016-12-05T13:05:07.168Z,2984
2016-12-05T13:06:07.459Z,2980
2016-12-05T13:07:07.137Z,2964
2016-12-05T13:08:07.127Z,2960
2016-12-05T13:09:07.110Z,2952
2016-12-05T13:10:07.403Z,2944
2016-12-05T13:11:07.081Z,2932
2016-12-05T13:12:07.072Z,2920
2016-12-05T13:13:07.046Z,2912
2016-12-05T13:14:07.042Z,2892
2016-12-05T13:15:07.021Z,2884
2016-12-05T13:16:07.010Z,2872
2016-12-05T13:17:06.998Z,2848
2016-12-05T13:18:06.977Z,2840
2016-12-05T13:19:07.271Z,2828
2016-12-05T13:20:06.952Z,2816
2016-12-05T13:21:06.943Z,2800
2016-12-05T13:22:06.926Z,2784
2016-12-05T13:23:07.202Z,2780
2016-12-05T13:24:06.894Z,2752
2016-12-05T13:25:06.886Z,2740
2016-12-05T13:26:06.870Z,2728
2016-12-05T13:27:06.849Z,2712
2016-12-05T13:28:06.851Z,2700
2016-12-05T13:29:06.835Z,2684
2016-12-05T13:30:06.816Z,2672
2016-12-05T13:31:06.800Z,2656
2016-12-05T13:32:06.792Z,2632
2016-12-05T13:33:06.769Z,2616
2016-12-05T13:34:06.758Z,2604
2016-12-05T13:35:06.739Z,2588
2016-12-05T13:36:06.730Z,2572
2016-12-05T13:37:06.736Z,2560
2016-12-05T13:38:06.701Z,2544
2016-12-05T13:39:06.680Z,2524
2016-12-05T13:40:06.670Z,2512
2016-12-05T13:41:06.647Z,2496
2016-12-05T13:42:06.636Z,2480
2016-12-05T13:43:06.623Z,2464
2016-12-05T13:44:06.613Z,2444
2016-12-05T13:45:06.901Z,2424
2016-12-05T13:46:06.583Z,2404
2016-12-05T13:47:06.561Z,2388
2016-12-05T13:48:06.556Z,2368
2016-12-05T13:49:07.150Z,2344
2016-12-05T13:50:06.819Z,2324
2016-12-05T13:51:06.504Z,2300
2016-12-05T13:52:06.805Z,2276
2016-12-05T13:53:06.473Z,2256
2016-12-05T13:54:06.462Z,2232
2016-12-05T13:55:06.461Z,2208
2016-12-05T13:56:06.437Z,2188
2016-12-05T13:57:06.419Z,2164
2016-12-05T13:58:06.403Z,2140
2016-12-05T13:59:06.395Z,2116
2016-12-05T14:00:06.375Z,2096